sensor_id;sensor_type;location;lat;lon;timestamp;P1;durP1;ratioP1;P2;durP2;ratioP2
33403;SDS011;19751;40.274;18.268;2023-10-08T00:02:03;18.15;;;11.07;;
33403;SDS011;19751;40.274;18.268;2023-10-08T00:04:31;15.88;;;10.18;;
33403;SDS011;19751;40.274;18.268;2023-10-08T00:07:02;15.20;;;10.52;;
33403;SDS011;19751;40.274;18.268;2023-10-08T00:09:34;21.58;;;10.18;;
33403;SDS011;19751;40.274;18.268;2023-10-08T00:12:03;14.35;;;10.43;;
33403;SDS011;19751;40.274;18.268;2023-10-08T00:14:33;18.40;;;11.35;;
33403;SDS011;19751;40.274;18.268;2023-10-08T00:17:08;18.55;;;10.73;;
33403;SDS011;19751;40.274;18.268;2023-10-08T00:19:35;16.77;;;10.85;;
33403;SDS011;19751;40.274;18.268;2023-10-08T00:22:03;20.23;;;11.55;;
33403;SDS011;19751;40.274;18.268;2023-10-08T00:24:35;14.55;;;10.20;;
33403;SDS011;19751;40.274;18.268;2023-10-08T00:27:00;18.50;;;11.45;;
33403;SDS011;19751;40.274;18.268;2023-10-08T00:29:27;19.75;;;11.23;;
33403;SDS011;19751;40.274;18.268;2023-10-08T00:31:56;17.90;;;11.77;;
33403;SDS011;19751;40.274;18.268;2023-10-08T00:34:22;20.17;;;12.15;;
33403;SDS011;19751;40.274;18.268;2023-10-08T00:36:49;21.33;;;12.30;;
33403;SDS011;19751;40.274;18.268;2023-10-08T00:39:15;14.60;;;10.85;;
33403;SDS011;19751;40.274;18.268;2023-10-08T00:41:47;16.50;;;10.45;;
33403;SDS011;19751;40.274;18.268;2023-10-08T00:44:15;18.70;;;12.45;;
33403;SDS011;19751;40.274;18.268;2023-10-08T00:46:42;14.38;;;11.30;;
33403;SDS011;19751;40.274;18.268;2023-10-08T00:49:17;23.45;;;11.57;;
33403;SDS011;19751;40.274;18.268;2023-10-08T00:51:51;17.33;;;11.27;;
33403;SDS011;19751;40.274;18.268;2023-10-08T00:54:26;15.40;;;11.32;;
33403;SDS011;19751;40.274;18.268;2023-10-08T00:56:53;19.33;;;12.00;;
33403;SDS011;19751;40.274;18.268;2023-10-08T00:59:22;16.60;;;10.25;;
33403;SDS011;19751;40.274;18.268;2023-10-08T01:01:49;19.77;;;11.60;;
33403;SDS011;19751;40.274;18.268;2023-10-08T01:04:30;18.35;;;12.80;;
33403;SDS011;19751;40.274;18.268;2023-10-08T01:06:59;14.57;;;10.57;;
33403;SDS011;19751;40.274;18.268;2023-10-08T01:09:35;13.35;;;9.52;;
33403;SDS011;19751;40.274;18.268;2023-10-08T01:12:08;17.23;;;11.18;;
33403;SDS011;19751;40.274;18.268;2023-10-08T01:14:44;17.15;;;10.77;;
33403;SDS011;19751;40.274;18.268;2023-10-08T01:17:15;18.05;;;10.45;;
33403;SDS011;19751;40.274;18.268;2023-10-08T01:19:42;16.00;;;11.35;;
33403;SDS011;19751;40.274;18.268;2023-10-08T01:22:13;16.58;;;10.18;;
33403;SDS011;19751;40.274;18.268;2023-10-08T01:24:47;19.00;;;11.60;;
33403;SDS011;19751;40.274;18.268;2023-10-08T01:27:17;16.30;;;11.52;;
33403;SDS011;19751;40.274;18.268;2023-10-08T01:29:48;18.92;;;11.02;;
33403;SDS011;19751;40.274;18.268;2023-10-08T01:32:18;17.83;;;12.05;;
33403;SDS011;19751;40.274;18.268;2023-10-08T01:34:44;19.10;;;11.20;;
33403;SDS011;19751;40.274;18.268;2023-10-08T01:37:12;18.88;;;11.48;;
33403;SDS011;19751;40.274;18.268;2023-10-08T01:39:44;13.27;;;9.90;;
33403;SDS011;19751;40.274;18.268;2023-10-08T01:42:13;27.73;;;12.30;;
33403;SDS011;19751;40.274;18.268;2023-10-08T01:44:49;16.50;;;10.60;;
33403;SDS011;19751;40.274;18.268;2023-10-08T01:47:15;18.95;;;11.05;;
33403;SDS011;19751;40.274;18.268;2023-10-08T01:49:45;18.38;;;11.10;;
33403;SDS011;19751;40.274;18.268;2023-10-08T01:52:15;16.40;;;10.35;;
33403;SDS011;19751;40.274;18.268;2023-10-08T01:54:46;16.80;;;10.85;;
33403;SDS011;19751;40.274;18.268;2023-10-08T01:57:13;17.35;;;10.70;;
33403;SDS011;19751;40.274;18.268;2023-10-08T01:59:39;19.10;;;11.13;;
33403;SDS011;19751;40.274;18.268;2023-10-08T02:02:05;16.02;;;10.70;;
33403;SDS011;19751;40.274;18.268;2023-10-08T02:04:34;16.50;;;11.00;;
33403;SDS011;19751;40.274;18.268;2023-10-08T02:07:01;19.55;;;11.75;;
33403;SDS011;19751;40.274;18.268;2023-10-08T02:09:29;17.35;;;11.10;;
33403;SDS011;19751;40.274;18.268;2023-10-08T02:11:55;18.23;;;9.80;;
33403;SDS011;19751;40.274;18.268;2023-10-08T02:14:22;14.90;;;9.13;;
33403;SDS011;19751;40.274;18.268;2023-10-08T02:16:48;15.00;;;9.80;;
33403;SDS011;19751;40.274;18.268;2023-10-08T02:19:17;15.70;;;10.05;;
33403;SDS011;19751;40.274;18.268;2023-10-08T02:21:52;15.38;;;10.43;;
33403;SDS011;19751;40.274;18.268;2023-10-08T02:24:21;16.63;;;9.40;;
33403;SDS011;19751;40.274;18.268;2023-10-08T02:26:52;19.58;;;11.35;;
33403;SDS011;19751;40.274;18.268;2023-10-08T02:29:20;15.80;;;10.45;;
33403;SDS011;19751;40.274;18.268;2023-10-08T02:31:48;14.70;;;10.20;;
33403;SDS011;19751;40.274;18.268;2023-10-08T02:34:15;15.70;;;10.38;;
33403;SDS011;19751;40.274;18.268;2023-10-08T02:36:40;17.40;;;10.60;;
33403;SDS011;19751;40.274;18.268;2023-10-08T02:39:07;13.75;;;9.60;;
33403;SDS011;19751;40.274;18.268;2023-10-08T02:41:43;13.77;;;9.48;;
33403;SDS011;19751;40.274;18.268;2023-10-08T02:44:15;12.38;;;9.82;;
33403;SDS011;19751;40.274;18.268;2023-10-08T02:46:45;17.63;;;11.23;;
33403;SDS011;19751;40.274;18.268;2023-10-08T02:49:12;20.73;;;9.75;;
33403;SDS011;19751;40.274;18.268;2023-10-08T02:51:42;13.27;;;9.38;;
33403;SDS011;19751;40.274;18.268;2023-10-08T02:54:10;11.10;;;7.45;;
33403;SDS011;19751;40.274;18.268;2023-10-08T02:56:56;11.55;;;7.97;;
33403;SDS011;19751;40.274;18.268;2023-10-08T02:59:32;10.52;;;7.40;;
33403;SDS011;19751;40.274;18.268;2023-10-08T03:02:08;15.75;;;8.00;;
33403;SDS011;19751;40.274;18.268;2023-10-08T03:04:51;12.75;;;7.85;;
33403;SDS011;19751;40.274;18.268;2023-10-08T03:07:17;18.55;;;9.77;;
33403;SDS011;19751;40.274;18.268;2023-10-08T03:09:47;14.20;;;7.80;;
33403;SDS011;19751;40.274;18.268;2023-10-08T03:12:15;12.55;;;7.60;;
33403;SDS011;19751;40.274;18.268;2023-10-08T03:14:42;12.88;;;8.02;;
33403;SDS011;19751;40.274;18.268;2023-10-08T03:17:36;18.60;;;8.40;;
33403;SDS011;19751;40.274;18.268;2023-10-08T03:20:14;12.93;;;7.82;;
33403;SDS011;19751;40.274;18.268;2023-10-08T03:23:03;11.35;;;7.25;;
33403;SDS011;19751;40.274;18.268;2023-10-08T03:25:54;12.82;;;6.88;;
33403;SDS011;19751;40.274;18.268;2023-10-08T03:28:29;24.48;;;9.10;;
33403;SDS011;19751;40.274;18.268;2023-10-08T03:30:59;8.52;;;6.45;;
33403;SDS011;19751;40.274;18.268;2023-10-08T03:33:39;11.60;;;7.22;;
33403;SDS011;19751;40.274;18.268;2023-10-08T03:36:06;14.57;;;6.20;;
33403;SDS011;19751;40.274;18.268;2023-10-08T03:38:59;9.85;;;6.05;;
33403;SDS011;19751;40.274;18.268;2023-10-08T03:41:35;8.43;;;6.18;;
33403;SDS011;19751;40.274;18.268;2023-10-08T03:44:05;12.43;;;6.50;;
33403;SDS011;19751;40.274;18.268;2023-10-08T03:46:32;10.00;;;6.57;;
33403;SDS011;19751;40.274;18.268;2023-10-08T03:49:07;7.93;;;6.30;;
33403;SDS011;19751;40.274;18.268;2023-10-08T03:54:28;10.50;;;6.20;;
33403;SDS011;19751;40.274;18.268;2023-10-08T03:57:00;10.00;;;5.97;;
33403;SDS011;19751;40.274;18.268;2023-10-08T03:59:29;6.47;;;5.43;;
33403;SDS011;19751;40.274;18.268;2023-10-08T04:01:57;9.85;;;6.35;;
33403;SDS011;19751;40.274;18.268;2023-10-08T04:04:26;10.40;;;6.57;;
33403;SDS011;19751;40.274;18.268;2023-10-08T04:07:15;12.10;;;6.72;;
33403;SDS011;19751;40.274;18.268;2023-10-08T04:10:14;12.95;;;6.75;;
33403;SDS011;19751;40.274;18.268;2023-10-08T04:12:58;7.65;;;6.05;;
33403;SDS011;19751;40.274;18.268;2023-10-08T04:15:24;9.10;;;6.45;;
33403;SDS011;19751;40.274;18.268;2023-10-08T04:17:49;11.68;;;7.93;;
33403;SDS011;19751;40.274;18.268;2023-10-08T04:20:16;9.10;;;6.60;;
33403;SDS011;19751;40.274;18.268;2023-10-08T04:25:27;10.43;;;5.85;;
33403;SDS011;19751;40.274;18.268;2023-10-08T04:27:57;11.13;;;5.78;;
33403;SDS011;19751;40.274;18.268;2023-10-08T04:30:24;11.32;;;6.60;;
33403;SDS011;19751;40.274;18.268;2023-10-08T04:33:04;16.63;;;7.43;;
33403;SDS011;19751;40.274;18.268;2023-10-08T04:35:37;10.18;;;6.43;;
33403;SDS011;19751;40.274;18.268;2023-10-08T04:38:24;8.65;;;6.35;;
33403;SDS011;19751;40.274;18.268;2023-10-08T04:41:01;12.48;;;6.93;;
33403;SDS011;19751;40.274;18.268;2023-10-08T04:43:33;8.75;;;6.35;;
33403;SDS011;19751;40.274;18.268;2023-10-08T04:46:02;14.40;;;7.72;;
33403;SDS011;19751;40.274;18.268;2023-10-08T04:48:47;14.70;;;7.47;;
33403;SDS011;19751;40.274;18.268;2023-10-08T04:51:20;11.95;;;7.35;;
33403;SDS011;19751;40.274;18.268;2023-10-08T04:53:48;15.23;;;8.15;;
33403;SDS011;19751;40.274;18.268;2023-10-08T04:56:14;11.85;;;8.13;;
33403;SDS011;19751;40.274;18.268;2023-10-08T04:58:43;13.65;;;8.35;;
33403;SDS011;19751;40.274;18.268;2023-10-08T05:01:16;11.25;;;7.85;;
33403;SDS011;19751;40.274;18.268;2023-10-08T05:03:52;13.80;;;7.70;;
33403;SDS011;19751;40.274;18.268;2023-10-08T05:06:24;12.90;;;8.68;;
33403;SDS011;19751;40.274;18.268;2023-10-08T05:09:12;17.90;;;9.88;;
33403;SDS011;19751;40.274;18.268;2023-10-08T05:11:51;16.90;;;10.43;;
33403;SDS011;19751;40.274;18.268;2023-10-08T05:14:18;16.40;;;12.02;;
33403;SDS011;19751;40.274;18.268;2023-10-08T05:17:02;21.08;;;12.18;;
33403;SDS011;19751;40.274;18.268;2023-10-08T05:19:34;19.35;;;12.48;;
33403;SDS011;19751;40.274;18.268;2023-10-08T05:22:13;20.35;;;13.68;;
33403;SDS011;19751;40.274;18.268;2023-10-08T05:25:02;18.23;;;12.98;;
33403;SDS011;19751;40.274;18.268;2023-10-08T05:27:41;21.60;;;13.43;;
33403;SDS011;19751;40.274;18.268;2023-10-08T05:30:21;22.60;;;15.50;;
33403;SDS011;19751;40.274;18.268;2023-10-08T05:32:54;25.30;;;16.20;;
33403;SDS011;19751;40.274;18.268;2023-10-08T05:35:40;24.13;;;15.15;;
33403;SDS011;19751;40.274;18.268;2023-10-08T05:38:06;23.52;;;15.25;;
33403;SDS011;19751;40.274;18.268;2023-10-08T05:40:44;26.05;;;14.80;;
33403;SDS011;19751;40.274;18.268;2023-10-08T05:43:29;31.63;;;17.83;;
33403;SDS011;19751;40.274;18.268;2023-10-08T05:46:02;31.38;;;17.63;;
33403;SDS011;19751;40.274;18.268;2023-10-08T05:51:26;27.98;;;17.52;;
33403;SDS011;19751;40.274;18.268;2023-10-08T05:54:11;32.30;;;18.02;;
33403;SDS011;19751;40.274;18.268;2023-10-08T05:56:52;36.00;;;19.25;;
33403;SDS011;19751;40.274;18.268;2023-10-08T05:59:46;33.85;;;18.95;;
33403;SDS011;19751;40.274;18.268;2023-10-08T06:02:22;24.60;;;17.80;;
33403;SDS011;19751;40.274;18.268;2023-10-08T06:05:14;30.77;;;16.02;;
33403;SDS011;19751;40.274;18.268;2023-10-08T06:07:41;29.42;;;16.88;;
33403;SDS011;19751;40.274;18.268;2023-10-08T06:10:17;27.48;;;15.32;;
33403;SDS011;19751;40.274;18.268;2023-10-08T06:13:00;26.20;;;15.68;;
33403;SDS011;19751;40.274;18.268;2023-10-08T06:18:31;25.77;;;14.57;;
33403;SDS011;19751;40.274;18.268;2023-10-08T06:21:00;23.17;;;13.95;;
33403;SDS011;19751;40.274;18.268;2023-10-08T06:23:33;20.65;;;13.10;;
33403;SDS011;19751;40.274;18.268;2023-10-08T06:26:02;18.83;;;12.02;;
33403;SDS011;19751;40.274;18.268;2023-10-08T06:28:50;14.73;;;10.90;;
33403;SDS011;19751;40.274;18.268;2023-10-08T06:31:22;15.70;;;9.48;;
33403;SDS011;19751;40.274;18.268;2023-10-08T06:33:49;17.58;;;9.65;;
33403;SDS011;19751;40.274;18.268;2023-10-08T06:36:15;13.90;;;9.25;;
33403;SDS011;19751;40.274;18.268;2023-10-08T06:38:42;13.85;;;10.05;;
33403;SDS011;19751;40.274;18.268;2023-10-08T06:41:12;18.95;;;10.82;;
33403;SDS011;19751;40.274;18.268;2023-10-08T06:43:38;19.23;;;10.30;;
33403;SDS011;19751;40.274;18.268;2023-10-08T06:46:05;13.35;;;7.95;;
33403;SDS011;19751;40.274;18.268;2023-10-08T06:48:37;16.30;;;9.40;;
33403;SDS011;19751;40.274;18.268;2023-10-08T06:51:07;20.90;;;12.15;;
33403;SDS011;19751;40.274;18.268;2023-10-08T06:53:38;11.38;;;7.72;;
33403;SDS011;19751;40.274;18.268;2023-10-08T06:56:04;18.08;;;11.35;;
33403;SDS011;19751;40.274;18.268;2023-10-08T06:58:33;23.38;;;10.32;;
33403;SDS011;19751;40.274;18.268;2023-10-08T07:00:59;17.42;;;9.00;;
33403;SDS011;19751;40.274;18.268;2023-10-08T07:03:29;13.88;;;8.00;;
33403;SDS011;19751;40.274;18.268;2023-10-08T07:05:56;13.05;;;7.57;;
33403;SDS011;19751;40.274;18.268;2023-10-08T07:08:30;12.70;;;7.75;;
33403;SDS011;19751;40.274;18.268;2023-10-08T07:10:57;28.70;;;9.35;;
33403;SDS011;19751;40.274;18.268;2023-10-08T07:13:26;13.85;;;7.47;;
33403;SDS011;19751;40.274;18.268;2023-10-08T07:15:54;12.23;;;8.00;;
33403;SDS011;19751;40.274;18.268;2023-10-08T07:18:20;15.07;;;6.90;;
33403;SDS011;19751;40.274;18.268;2023-10-08T07:20:52;11.35;;;6.80;;
33403;SDS011;19751;40.274;18.268;2023-10-08T07:23:20;14.65;;;8.05;;
33403;SDS011;19751;40.274;18.268;2023-10-08T07:25:56;10.05;;;7.07;;
33403;SDS011;19751;40.274;18.268;2023-10-08T07:28:39;15.02;;;6.82;;
33403;SDS011;19751;40.274;18.268;2023-10-08T07:31:18;11.82;;;6.78;;
33403;SDS011;19751;40.274;18.268;2023-10-08T07:33:49;10.32;;;6.05;;
33403;SDS011;19751;40.274;18.268;2023-10-08T07:36:40;7.75;;;6.07;;
33403;SDS011;19751;40.274;18.268;2023-10-08T07:39:07;10.00;;;5.70;;
33403;SDS011;19751;40.274;18.268;2023-10-08T07:41:33;15.18;;;7.10;;
33403;SDS011;19751;40.274;18.268;2023-10-08T07:43:59;8.85;;;6.47;;
33403;SDS011;19751;40.274;18.268;2023-10-08T07:46:25;10.55;;;6.38;;
33403;SDS011;19751;40.274;18.268;2023-10-08T07:48:54;8.75;;;5.78;;
33403;SDS011;19751;40.274;18.268;2023-10-08T07:51:23;10.27;;;6.95;;
33403;SDS011;19751;40.274;18.268;2023-10-08T07:53:52;9.65;;;6.07;;
33403;SDS011;19751;40.274;18.268;2023-10-08T07:56:24;9.73;;;4.93;;
33403;SDS011;19751;40.274;18.268;2023-10-08T07:58:53;11.45;;;5.32;;
33403;SDS011;19751;40.274;18.268;2023-10-08T08:01:22;7.07;;;4.70;;
33403;SDS011;19751;40.274;18.268;2023-10-08T08:03:50;9.27;;;5.40;;
33403;SDS011;19751;40.274;18.268;2023-10-08T08:06:16;10.85;;;6.15;;
33403;SDS011;19751;40.274;18.268;2023-10-08T08:08:41;7.15;;;4.60;;
33403;SDS011;19751;40.274;18.268;2023-10-08T08:11:09;6.85;;;5.10;;
33403;SDS011;19751;40.274;18.268;2023-10-08T08:13:38;7.85;;;4.93;;
33403;SDS011;19751;40.274;18.268;2023-10-08T08:16:07;9.48;;;5.18;;
33403;SDS011;19751;40.274;18.268;2023-10-08T08:18:54;8.75;;;5.32;;
33403;SDS011;19751;40.274;18.268;2023-10-08T08:21:22;8.15;;;4.45;;
33403;SDS011;19751;40.274;18.268;2023-10-08T08:23:49;5.68;;;4.07;;
33403;SDS011;19751;40.274;18.268;2023-10-08T08:26:18;5.72;;;4.32;;
33403;SDS011;19751;40.274;18.268;2023-10-08T08:28:58;7.82;;;4.40;;
33403;SDS011;19751;40.274;18.268;2023-10-08T08:31:27;9.38;;;4.07;;
33403;SDS011;19751;40.274;18.268;2023-10-08T08:34:00;6.55;;;3.80;;
33403;SDS011;19751;40.274;18.268;2023-10-08T08:36:28;9.80;;;4.35;;
33403;SDS011;19751;40.274;18.268;2023-10-08T08:38:56;8.38;;;3.50;;
33403;SDS011;19751;40.274;18.268;2023-10-08T08:41:22;9.30;;;3.05;;
33403;SDS011;19751;40.274;18.268;2023-10-08T08:43:51;5.35;;;3.05;;
33403;SDS011;19751;40.274;18.268;2023-10-08T08:48:52;6.57;;;3.42;;
33403;SDS011;19751;40.274;18.268;2023-10-08T08:51:21;6.32;;;3.25;;
33403;SDS011;19751;40.274;18.268;2023-10-08T08:53:48;4.60;;;3.28;;
33403;SDS011;19751;40.274;18.268;2023-10-08T08:56:14;7.07;;;3.35;;
33403;SDS011;19751;40.274;18.268;2023-10-08T08:58:41;4.20;;;2.70;;
33403;SDS011;19751;40.274;18.268;2023-10-08T09:01:09;8.57;;;3.53;;
33403;SDS011;19751;40.274;18.268;2023-10-08T09:03:38;5.60;;;3.35;;
33403;SDS011;19751;40.274;18.268;2023-10-08T09:06:04;5.22;;;2.88;;
33403;SDS011;19751;40.274;18.268;2023-10-08T09:08:37;4.95;;;2.88;;
33403;SDS011;19751;40.274;18.268;2023-10-08T09:11:07;5.50;;;3.70;;
33403;SDS011;19751;40.274;18.268;2023-10-08T09:13:33;7.15;;;3.58;;
33403;SDS011;19751;40.274;18.268;2023-10-08T09:16:07;8.48;;;3.85;;
33403;SDS011;19751;40.274;18.268;2023-10-08T09:18:36;5.07;;;3.80;;
33403;SDS011;19751;40.274;18.268;2023-10-08T09:21:09;8.93;;;3.47;;
33403;SDS011;19751;40.274;18.268;2023-10-08T09:23:38;9.20;;;3.90;;
33403;SDS011;19751;40.274;18.268;2023-10-08T09:26:12;7.68;;;3.63;;
33403;SDS011;19751;40.274;18.268;2023-10-08T09:28:47;8.55;;;3.95;;
33403;SDS011;19751;40.274;18.268;2023-10-08T09:31:13;8.02;;;4.00;;
33403;SDS011;19751;40.274;18.268;2023-10-08T09:33:40;6.35;;;4.75;;
33403;SDS011;19751;40.274;18.268;2023-10-08T09:36:06;10.77;;;4.90;;
33403;SDS011;19751;40.274;18.268;2023-10-08T09:38:36;7.65;;;4.50;;
33403;SDS011;19751;40.274;18.268;2023-10-08T09:41:02;5.93;;;4.10;;
33403;SDS011;19751;40.274;18.268;2023-10-08T09:43:29;6.90;;;3.58;;
33403;SDS011;19751;40.274;18.268;2023-10-08T09:46:03;8.32;;;4.75;;
33403;SDS011;19751;40.274;18.268;2023-10-08T09:48:33;7.50;;;5.20;;
33403;SDS011;19751;40.274;18.268;2023-10-08T09:51:02;9.60;;;4.65;;
33403;SDS011;19751;40.274;18.268;2023-10-08T09:53:43;10.90;;;4.75;;
33403;SDS011;19751;40.274;18.268;2023-10-08T09:56:18;7.50;;;4.25;;
33403;SDS011;19751;40.274;18.268;2023-10-08T09:58:45;9.98;;;5.70;;
33403;SDS011;19751;40.274;18.268;2023-10-08T10:01:14;9.63;;;4.45;;
33403;SDS011;19751;40.274;18.268;2023-10-08T10:03:43;10.23;;;4.97;;
33403;SDS011;19751;40.274;18.268;2023-10-08T10:06:17;7.15;;;4.53;;
33403;SDS011;19751;40.274;18.268;2023-10-08T10:08:43;9.77;;;4.35;;
33403;SDS011;19751;40.274;18.268;2023-10-08T10:11:10;8.75;;;4.38;;
33403;SDS011;19751;40.274;18.268;2023-10-08T10:13:41;8.05;;;4.03;;
33403;SDS011;19751;40.274;18.268;2023-10-08T10:16:09;7.50;;;4.10;;
33403;SDS011;19751;40.274;18.268;2023-10-08T10:18:38;8.27;;;4.40;;
33403;SDS011;19751;40.274;18.268;2023-10-08T10:23:39;8.60;;;4.25;;
33403;SDS011;19751;40.274;18.268;2023-10-08T10:31:37;10.10;;;3.95;;
33403;SDS011;19751;40.274;18.268;2023-10-08T10:34:09;6.50;;;3.30;;
33403;SDS011;19751;40.274;18.268;2023-10-08T10:36:38;8.40;;;4.65;;
33403;SDS011;19751;40.274;18.268;2023-10-08T10:39:05;16.65;;;5.90;;
33403;SDS011;19751;40.274;18.268;2023-10-08T10:41:50;5.80;;;3.83;;
33403;SDS011;19751;40.274;18.268;2023-10-08T10:44:16;8.55;;;4.03;;
33403;SDS011;19751;40.274;18.268;2023-10-08T10:46:42;6.80;;;4.03;;
33403;SDS011;19751;40.274;18.268;2023-10-08T10:49:16;7.20;;;3.58;;
33403;SDS011;19751;40.274;18.268;2023-10-08T10:51:56;7.78;;;3.45;;
33403;SDS011;19751;40.274;18.268;2023-10-08T10:54:23;9.18;;;3.70;;
33403;SDS011;19751;40.274;18.268;2023-10-08T10:56:49;8.30;;;3.47;;
33403;SDS011;19751;40.274;18.268;2023-10-08T10:59:29;5.35;;;3.00;;
33403;SDS011;19751;40.274;18.268;2023-10-08T11:02:02;7.35;;;2.90;;
33403;SDS011;19751;40.274;18.268;2023-10-08T11:04:34;6.75;;;3.55;;
33403;SDS011;19751;40.274;18.268;2023-10-08T11:07:19;7.25;;;3.95;;
33403;SDS011;19751;40.274;18.268;2023-10-08T11:09:47;4.70;;;3.50;;
33403;SDS011;19751;40.274;18.268;2023-10-08T11:12:13;5.97;;;3.67;;
33403;SDS011;19751;40.274;18.268;2023-10-08T11:14:44;9.43;;;3.85;;
33403;SDS011;19751;40.274;18.268;2023-10-08T11:17:12;8.95;;;4.00;;
33403;SDS011;19751;40.274;18.268;2023-10-08T11:19:40;11.55;;;3.97;;
33403;SDS011;19751;40.274;18.268;2023-10-08T11:22:08;9.23;;;3.55;;
33403;SDS011;19751;40.274;18.268;2023-10-08T11:24:41;6.65;;;3.40;;
33403;SDS011;19751;40.274;18.268;2023-10-08T11:27:08;7.22;;;3.63;;
33403;SDS011;19751;40.274;18.268;2023-10-08T11:29:46;8.25;;;3.60;;
33403;SDS011;19751;40.274;18.268;2023-10-08T11:32:12;6.25;;;3.80;;
33403;SDS011;19751;40.274;18.268;2023-10-08T11:34:42;10.95;;;3.78;;
33403;SDS011;19751;40.274;18.268;2023-10-08T11:37:15;9.00;;;3.83;;
33403;SDS011;19751;40.274;18.268;2023-10-08T11:39:51;5.95;;;3.25;;
33403;SDS011;19751;40.274;18.268;2023-10-08T11:42:18;12.50;;;4.10;;
33403;SDS011;19751;40.274;18.268;2023-10-08T11:44:59;6.20;;;3.58;;
33403;SDS011;19751;40.274;18.268;2023-10-08T11:47:25;6.53;;;3.40;;
33403;SDS011;19751;40.274;18.268;2023-10-08T11:49:56;9.68;;;3.70;;
33403;SDS011;19751;40.274;18.268;2023-10-08T11:52:35;4.70;;;3.83;;
33403;SDS011;19751;40.274;18.268;2023-10-08T11:55:07;9.90;;;3.92;;
33403;SDS011;19751;40.274;18.268;2023-10-08T11:57:34;7.07;;;3.63;;
33403;SDS011;19751;40.274;18.268;2023-10-08T12:00:10;6.70;;;3.72;;
33403;SDS011;19751;40.274;18.268;2023-10-08T12:02:48;8.43;;;4.05;;
33403;SDS011;19751;40.274;18.268;2023-10-08T12:05:14;11.07;;;4.47;;
33403;SDS011;19751;40.274;18.268;2023-10-08T12:07:48;9.95;;;4.07;;
33403;SDS011;19751;40.274;18.268;2023-10-08T12:10:16;9.10;;;3.47;;
33403;SDS011;19751;40.274;18.268;2023-10-08T12:12:50;7.97;;;3.95;;
33403;SDS011;19751;40.274;18.268;2023-10-08T12:15:25;7.28;;;4.13;;
33403;SDS011;19751;40.274;18.268;2023-10-08T12:17:59;8.57;;;4.28;;
33403;SDS011;19751;40.274;18.268;2023-10-08T12:20:40;7.55;;;4.07;;
33403;SDS011;19751;40.274;18.268;2023-10-08T12:23:11;6.72;;;4.25;;
33403;SDS011;19751;40.274;18.268;2023-10-08T12:25:43;8.55;;;4.55;;
33403;SDS011;19751;40.274;18.268;2023-10-08T12:28:16;7.55;;;4.25;;
33403;SDS011;19751;40.274;18.268;2023-10-08T12:30:44;10.07;;;5.00;;
33403;SDS011;19751;40.274;18.268;2023-10-08T12:33:10;8.35;;;3.55;;
33403;SDS011;19751;40.274;18.268;2023-10-08T12:35:38;6.07;;;3.95;;
33403;SDS011;19751;40.274;18.268;2023-10-08T12:38:05;9.00;;;4.30;;
33403;SDS011;19751;40.274;18.268;2023-10-08T12:40:31;7.03;;;4.18;;
33403;SDS011;19751;40.274;18.268;2023-10-08T12:43:15;9.13;;;4.50;;
33403;SDS011;19751;40.274;18.268;2023-10-08T12:45:47;17.98;;;4.30;;
33403;SDS011;19751;40.274;18.268;2023-10-08T12:50:49;10.52;;;4.63;;
33403;SDS011;19751;40.274;18.268;2023-10-08T12:53:21;14.65;;;4.47;;
33403;SDS011;19751;40.274;18.268;2023-10-08T12:55:59;7.22;;;3.75;;
33403;SDS011;19751;40.274;18.268;2023-10-08T12:58:31;9.00;;;3.40;;
33403;SDS011;19751;40.274;18.268;2023-10-08T13:01:05;6.72;;;3.60;;
33403;SDS011;19751;40.274;18.268;2023-10-08T13:03:32;13.05;;;4.07;;
33403;SDS011;19751;40.274;18.268;2023-10-08T13:05:58;10.05;;;3.72;;
33403;SDS011;19751;40.274;18.268;2023-10-08T13:08:36;6.70;;;3.72;;
33403;SDS011;19751;40.274;18.268;2023-10-08T13:11:02;7.75;;;4.65;;
33403;SDS011;19751;40.274;18.268;2023-10-08T13:13:29;7.00;;;4.35;;
33403;SDS011;19751;40.274;18.268;2023-10-08T13:15:59;8.30;;;4.43;;
33403;SDS011;19751;40.274;18.268;2023-10-08T13:18:28;14.70;;;4.55;;
33403;SDS011;19751;40.274;18.268;2023-10-08T13:20:54;8.98;;;4.05;;
33403;SDS011;19751;40.274;18.268;2023-10-08T13:23:20;7.15;;;4.20;;
33403;SDS011;19751;40.274;18.268;2023-10-08T13:25:49;7.65;;;4.30;;
33403;SDS011;19751;40.274;18.268;2023-10-08T13:28:23;11.15;;;4.97;;
33403;SDS011;19751;40.274;18.268;2023-10-08T13:30:51;8.93;;;3.90;;
33403;SDS011;19751;40.274;18.268;2023-10-08T13:33:23;7.93;;;4.05;;
33403;SDS011;19751;40.274;18.268;2023-10-08T13:35:49;7.60;;;4.07;;
33403;SDS011;19751;40.274;18.268;2023-10-08T13:38:16;8.48;;;4.70;;
33403;SDS011;19751;40.274;18.268;2023-10-08T13:40:54;9.32;;;4.50;;
33403;SDS011;19751;40.274;18.268;2023-10-08T13:43:33;10.13;;;4.45;;
33403;SDS011;19751;40.274;18.268;2023-10-08T13:46:06;13.48;;;5.30;;
33403;SDS011;19751;40.274;18.268;2023-10-08T13:48:34;8.57;;;4.28;;
33403;SDS011;19751;40.274;18.268;2023-10-08T13:51:01;11.70;;;4.68;;
33403;SDS011;19751;40.274;18.268;2023-10-08T13:53:29;10.68;;;4.82;;
33403;SDS011;19751;40.274;18.268;2023-10-08T13:55:56;7.90;;;4.55;;
33403;SDS011;19751;40.274;18.268;2023-10-08T13:58:25;9.40;;;4.95;;
33403;SDS011;19751;40.274;18.268;2023-10-08T14:00:51;6.47;;;4.47;;
33403;SDS011;19751;40.274;18.268;2023-10-08T14:03:18;10.63;;;4.32;;
33403;SDS011;19751;40.274;18.268;2023-10-08T14:05:47;12.07;;;4.38;;
33403;SDS011;19751;40.274;18.268;2023-10-08T14:08:17;10.57;;;4.35;;
33403;SDS011;19751;40.274;18.268;2023-10-08T14:10:43;12.25;;;4.57;;
33403;SDS011;19751;40.274;18.268;2023-10-08T14:13:10;9.35;;;4.47;;
33403;SDS011;19751;40.274;18.268;2023-10-08T14:15:35;14.63;;;5.20;;
33403;SDS011;19751;40.274;18.268;2023-10-08T14:18:09;9.15;;;4.85;;
33403;SDS011;19751;40.274;18.268;2023-10-08T14:20:36;13.90;;;4.78;;
33403;SDS011;19751;40.274;18.268;2023-10-08T14:23:05;7.63;;;4.68;;
33403;SDS011;19751;40.274;18.268;2023-10-08T14:25:31;9.43;;;4.30;;
33403;SDS011;19751;40.274;18.268;2023-10-08T14:27:59;14.07;;;4.65;;
33403;SDS011;19751;40.274;18.268;2023-10-08T14:30:32;11.25;;;4.93;;
33403;SDS011;19751;40.274;18.268;2023-10-08T14:33:00;9.43;;;5.10;;
33403;SDS011;19751;40.274;18.268;2023-10-08T14:35:28;13.00;;;5.45;;
33403;SDS011;19751;40.274;18.268;2023-10-08T14:40:56;8.80;;;4.90;;
33403;SDS011;19751;40.274;18.268;2023-10-08T14:43:40;11.40;;;5.22;;
33403;SDS011;19751;40.274;18.268;2023-10-08T14:46:08;16.50;;;6.45;;
33403;SDS011;19751;40.274;18.268;2023-10-08T14:48:34;9.30;;;4.63;;
33403;SDS011;19751;40.274;18.268;2023-10-08T14:51:02;10.32;;;4.70;;
33403;SDS011;19751;40.274;18.268;2023-10-08T14:53:28;7.47;;;4.75;;
33403;SDS011;19751;40.274;18.268;2023-10-08T14:55:56;10.88;;;5.63;;
33403;SDS011;19751;40.274;18.268;2023-10-08T14:58:22;12.65;;;5.55;;
33403;SDS011;19751;40.274;18.268;2023-10-08T15:00:50;8.63;;;5.10;;
33403;SDS011;19751;40.274;18.268;2023-10-08T15:03:19;7.30;;;4.72;;
33403;SDS011;19751;40.274;18.268;2023-10-08T15:05:45;8.15;;;4.68;;
33403;SDS011;19751;40.274;18.268;2023-10-08T15:08:12;11.15;;;4.72;;
33403;SDS011;19751;40.274;18.268;2023-10-08T15:10:39;9.32;;;4.88;;
33403;SDS011;19751;40.274;18.268;2023-10-08T15:13:05;12.40;;;4.85;;
33403;SDS011;19751;40.274;18.268;2023-10-08T15:15:34;9.63;;;4.90;;